Time;durP1;ratioP1;P1;durP2;ratioP2;P2;SDS_P1;SDS_P2;PMS_P1;PMS_P2;Temp;Humidity;BMP_temperature;BMP_pressure;BME280_temperature;BME280_humidity;BME280_pressure;Samples;Min_cycle;Max_cycle;Signal;HPM_P1;HPM_P2
2022/09/03 00:00:04;;;;;;;2.78;0.93;;;19.40;54.90;;;;;;5039660;28;25144;-74
2022/09/03 00:02:51;;;;;;;1.58;1.30;;;19.50;56.80;;;;;;5065502;28;25129;-74
2022/09/03 00:05:39;;;;;;;1.85;1.40;;;19.50;56.40;;;;;;5058074;28;25142;-74
2022/09/03 00:08:32;;;;;;;3.00;0.98;;;19.50;54.20;;;;;;5066010;28;25061;-74
2022/09/03 00:11:17;;;;;;;1.73;1.40;;;19.50;54.40;;;;;;5057955;28;25073;-74
2022/09/03 00:14:12;;;;;;;1.83;1.20;;;19.40;51.80;;;;;;5063037;28;25068;-74
2022/09/03 00:16:55;;;;;;;2.97;1.60;;;19.40;53.90;;;;;;5061756;28;25094;-74
2022/09/03 00:19:30;;;;;;;3.97;1.58;;;19.40;54.60;;;;;;5058331;28;25131;-73
2022/09/03 00:22:01;;;;;;;2.60;1.85;;;19.30;56.20;;;;;;5056921;28;25075;-74
2022/09/03 00:24:34;;;;;;;1.95;1.20;;;19.20;56.30;;;;;;5064322;28;25139;-73
2022/09/03 00:27:05;;;;;;;4.25;1.20;;;19.20;58.10;;;;;;5056658;28;25070;-75
2022/09/03 00:29:49;;;;;;;3.47;1.52;;;19.30;59.70;;;;;;5047648;28;25061;-74
2022/09/03 00:32:41;;;;;;;2.42;1.35;;;19.30;58.90;;;;;;5055527;28;25147;-74
2022/09/03 00:35:13;;;;;;;1.40;1.30;;;19.20;59.50;;;;;;5059434;28;25071;-74
2022/09/03 00:37:40;;;;;;;2.70;1.67;;;19.10;62.60;;;;;;5067293;28;25057;-75
2022/09/03 00:40:17;;;;;;;6.30;1.77;;;19.10;64.20;;;;;;5047951;28;25056;-75
2022/09/03 00:42:57;;;;;;;3.33;1.55;;;19.10;62.80;;;;;;5055878;28;25164;-75
2022/09/03 00:45:43;;;;;;;5.70;1.50;;;19.10;62.80;;;;;;5060011;28;25070;-75
2022/09/03 00:48:31;;;;;;;1.30;1.20;;;19.00;64.40;;;;;;5049254;28;25093;-74
2022/09/03 00:51:15;;;;;;;4.45;2.50;;;18.90;70.60;;;;;;5055622;28;25065;-74
2022/09/03 00:53:56;;;;;;;4.30;1.45;;;18.90;74.00;;;;;;5091564;28;25082;-75
2022/09/03 00:56:58;;;;;;;3.38;1.50;;;18.90;74.30;;;;;;5053412;28;25093;-72
2022/09/03 00:59:47;;;;;;;1.43;1.33;;;18.80;75.30;;;;;;5018412;28;25067;-73
2022/09/03 01:02:27;;;;;;;5.78;1.33;;;18.70;80.10;;;;;;5047136;28;25108;-74
2022/09/03 01:05:09;;;;;;;3.75;1.40;;;18.70;82.60;;;;;;5059666;28;25071;-74
2022/09/03 01:07:52;;;;;;;2.03;1.40;;;18.70;84.10;;;;;;5055075;28;25077;-76
2022/09/03 01:10:31;;;;;;;1.83;1.30;;;18.60;85.70;;;;;;5055206;28;25072;-75
2022/09/03 01:13:18;;;;;;;1.63;1.20;;;18.50;89.90;;;;;;5050891;28;25068;-74
2022/09/03 01:15:51;;;;;;;1.77;1.48;;;18.50;91.00;;;;;;5060640;28;25048;-74
2022/09/03 01:18:22;;;;;;;5.15;1.60;;;18.40;92.40;;;;;;5060420;28;25061;-73
2022/09/03 01:21:00;;;;;;;2.47;1.25;;;18.30;91.80;;;;;;5052843;28;25055;-73
2022/09/03 01:23:44;;;;;;;6.25;2.38;;;18.30;91.60;;;;;;5063986;28;25134;-74
2022/09/03 01:26:28;;;;;;;6.40;1.90;;;18.30;91.20;;;;;;5064853;28;25161;-74
2022/09/03 01:29:12;;;;;;;3.83;1.83;;;18.30;90.80;;;;;;5053687;28;25112;-73
2022/09/03 01:32:23;;;;;;;3.22;1.52;;;18.30;90.00;;;;;;5066159;28;25086;-73
2022/09/03 01:34:52;;;;;;;5.60;1.77;;;18.30;90.20;;;;;;5026598;28;25070;-75
2022/09/03 01:37:27;;;;;;;4.15;1.63;;;18.30;90.00;;;;;;5062142;28;25139;-75
2022/09/03 01:40:16;;;;;;;2.88;1.33;;;18.20;90.30;;;;;;5059845;28;25072;-73
2022/09/03 01:42:49;;;;;;;2.33;1.52;;;18.30;90.00;;;;;;5069284;28;25115;-74
2022/09/03 01:45:35;;;;;;;4.80;1.52;;;18.20;90.90;;;;;;5056388;28;25143;-73
2022/09/03 01:48:20;;;;;;;3.22;1.77;;;18.00;93.10;;;;;;5056249;28;25054;-73
2022/09/03 01:50:58;;;;;;;2.33;1.50;;;18.00;93.70;;;;;;5058664;28;25114;-72
2022/09/03 01:53:53;;;;;;;7.05;2.85;;;18.00;94.50;;;;;;5057371;28;25057;-74
2022/09/03 01:57:00;;;;;;;5.28;1.63;;;18.00;94.70;;;;;;5063955;28;25157;-74
2022/09/03 01:59:36;;;;;;;2.45;1.67;;;18.00;96.30;;;;;;5085609;28;25064;-73
2022/09/03 02:02:09;;;;;;;4.20;1.70;;;18.00;97.90;;;;;;5070745;28;25148;-73
2022/09/03 02:04:35;;;;;;;;;;;18.00;98.00;;;;;;5066017;28;25159;-75
2022/09/03 02:07:02;;;;;;;5.90;2.03;;;17.90;99.40;;;;;;5056408;28;25150;-74
2022/09/03 02:09:28;;;;;;;4.20;1.70;;;17.90;99.90;;;;;;5063334;28;25102;-74
2022/09/03 02:12:19;;;;;;;4.25;1.60;;;17.80;99.90;;;;;;5058829;28;25094;-74
2022/09/03 02:14:45;;;;;;;2.97;1.70;;;17.80;99.90;;;;;;5058736;28;25052;-73
2022/09/03 02:17:11;;;;;;;4.18;2.00;;;17.80;99.90;;;;;;5068366;28;25066;-75
2022/09/03 02:19:38;;;;;;;2.10;1.60;;;17.70;99.90;;;;;;5060082;28;25105;-74
2022/09/03 02:22:04;;;;;;;5.28;2.20;;;17.70;99.90;;;;;;5048131;28;25100;-74
2022/09/03 02:24:30;;;;;;;5.43;1.80;;;17.60;99.90;;;;;;5060998;28;25055;-75
2022/09/03 02:26:56;;;;;;;3.58;1.90;;;17.60;99.90;;;;;;5066420;28;25054;-74
2022/09/03 02:29:22;;;;;;;3.97;1.60;;;17.60;99.90;;;;;;5084482;28;25091;-75
2022/09/03 02:31:48;;;;;;;3.92;2.25;;;17.50;99.90;;;;;;5088873;28;25081;-74
2022/09/03 02:34:14;;;;;;;2.85;1.58;;;17.50;99.90;;;;;;5077067;28;25142;-74
2022/09/03 02:36:44;;;;;;;4.85;1.77;;;17.40;99.90;;;;;;5083774;28;25078;-73
2022/09/03 02:39:11;;;;;;;4.43;2.05;;;17.50;99.90;;;;;;5078903;28;25062;-75
2022/09/03 02:41:37;;;;;;;4.75;1.60;;;17.40;99.90;;;;;;5086217;28;25066;-75
2022/09/03 02:44:09;;;;;;;2.40;2.00;;;17.30;99.90;;;;;;5082548;28;25073;-73
2022/09/03 02:46:41;;;;;;;2.90;1.85;;;17.20;99.90;;;;;;5084433;28;25071;-73
2022/09/03 02:49:07;;;;;;;5.23;1.80;;;17.20;99.90;;;;;;5077105;28;25057;-73
2022/09/03 02:51:40;;;;;;;4.95;2.17;;;17.20;99.90;;;;;;5066982;28;25201;-74
2022/09/03 02:54:07;;;;;;;2.47;2.15;;;17.10;99.90;;;;;;5083095;28;25058;-74
2022/09/03 02:56:32;;;;;;;6.50;2.00;;;17.10;99.90;;;;;;5077979;28;25071;-75
2022/09/03 02:58:59;;;;;;;3.55;2.00;;;17.10;99.90;;;;;;5064780;28;25075;-74
2022/09/03 03:01:25;;;;;;;2.90;1.98;;;17.10;99.90;;;;;;5065510;28;25153;-74
2022/09/03 03:03:51;;;;;;;3.72;2.42;;;17.00;99.90;;;;;;5064539;28;25114;-74
2022/09/03 03:06:19;;;;;;;3.30;2.10;;;17.00;99.90;;;;;;5054487;28;25101;-74
2022/09/03 03:08:46;;;;;;;4.60;1.73;;;17.00;99.90;;;;;;5064734;28;25055;-75
2022/09/03 03:11:17;;;;;;;5.22;2.08;;;16.90;99.90;;;;;;5058857;28;25063;-74
2022/09/03 03:13:44;;;;;;;6.68;2.10;;;16.90;99.90;;;;;;5070839;28;25053;-74
2022/09/03 03:16:10;;;;;;;3.50;2.03;;;16.90;99.90;;;;;;5067153;28;25120;-74
2022/09/03 03:18:35;;;;;;;6.28;2.20;;;16.80;99.90;;;;;;5065600;28;25056;-74
2022/09/03 03:21:06;;;;;;;5.15;2.38;;;16.80;99.90;;;;;;5067095;28;25064;-73
2022/09/03 03:23:32;;;;;;;2.35;1.67;;;16.80;99.90;;;;;;5067769;28;25173;-74
2022/09/03 03:26:03;;;;;;;3.47;2.15;;;16.80;99.90;;;;;;5067244;28;25106;-73
2022/09/03 03:28:32;;;;;;;3.35;1.67;;;16.70;99.90;;;;;;5065099;28;25067;-73
2022/09/03 03:31:03;;;;;;;3.55;1.95;;;16.70;99.90;;;;;;5064469;28;25079;-75
2022/09/03 03:33:29;;;;;;;3.42;2.00;;;16.70;99.90;;;;;;5067160;28;25077;-74
2022/09/03 03:35:54;;;;;;;8.50;2.20;;;16.60;99.90;;;;;;5066188;28;25069;-74
2022/09/03 03:38:20;;;;;;;4.75;2.08;;;16.60;99.90;;;;;;5061839;28;25074;-74
2022/09/03 03:40:46;;;;;;;5.38;2.13;;;16.60;99.90;;;;;;5055867;28;25062;-77
2022/09/03 03:43:11;;;;;;;2.85;2.10;;;16.60;99.90;;;;;;5069019;28;25077;-74
2022/09/03 03:45:37;;;;;;;4.40;2.20;;;16.60;99.90;;;;;;5055651;28;25114;-74
2022/09/03 03:48:02;;;;;;;4.63;2.30;;;16.60;99.90;;;;;;5064512;28;25058;-73
2022/09/03 03:50:28;;;;;;;4.20;2.13;;;16.60;99.90;;;;;;5058962;28;25064;-74
2022/09/03 03:52:54;;;;;;;2.92;1.92;;;16.50;99.90;;;;;;5065582;28;25082;-75
2022/09/03 03:55:19;;;;;;;5.22;2.38;;;16.50;99.90;;;;;;5058894;28;25054;-75
2022/09/03 03:57:45;;;;;;;2.40;1.85;;;16.50;99.90;;;;;;5053829;28;25061;-75
2022/09/03 04:00:11;;;;;;;3.30;1.95;;;16.40;99.90;;;;;;5048376;28;25085;-74
2022/09/03 04:02:37;;;;;;;3.53;2.10;;;16.40;99.90;;;;;;5060452;28;25088;-75
2022/09/03 04:05:03;;;;;;;5.00;1.85;;;16.40;99.90;;;;;;5063717;28;25095;-75
2022/09/03 04:07:28;;;;;;;3.53;1.92;;;16.40;99.90;;;;;;5059124;28;25143;-76
2022/09/03 04:09:54;;;;;;;3.25;1.83;;;16.40;99.90;;;;;;5057363;28;25143;-75
2022/09/03 04:12:19;;;;;;;3.33;2.15;;;16.30;99.90;;;;;;5060152;28;25099;-75
2022/09/03 04:14:45;;;;;;;3.67;1.90;;;16.30;99.90;;;;;;5054069;28;25130;-74
2022/09/03 04:17:10;;;;;;;3.20;2.03;;;16.30;99.90;;;;;;5067240;28;25101;-74
2022/09/03 04:19:37;;;;;;;4.70;1.92;;;16.30;99.90;;;;;;5051626;28;25097;-75
2022/09/03 04:22:03;;;;;;;4.13;2.10;;;16.30;99.90;;;;;;5061879;28;25158;-75
2022/09/03 04:24:28;;;;;;;2.72;1.88;;;16.30;99.90;;;;;;5055903;28;25075;-75
2022/09/03 04:26:54;;;;;;;5.13;2.20;;;16.30;99.90;;;;;;5058072;28;25125;-76
2022/09/03 04:29:20;;;;;;;2.83;1.70;;;16.30;99.90;;;;;;5059104;28;25054;-76
2022/09/03 04:34:31;;;;;;;9.43;1.63;;;16.20;99.90;;;;;;5067026;28;25079;-74
2022/09/03 04:36:57;;;;;;;3.67;1.60;;;16.20;99.90;;;;;;5063016;28;25058;-75
2022/09/03 04:39:24;;;;;;;2.97;1.83;;;16.10;99.90;;;;;;5063202;28;25096;-76
2022/09/03 04:41:49;;;;;;;6.57;1.80;;;16.20;99.90;;;;;;5062091;28;25098;-76
2022/09/03 04:44:15;;;;;;;2.72;1.92;;;16.20;99.90;;;;;;5048934;28;25096;-75
2022/09/03 04:46:41;;;;;;;4.10;1.73;;;16.20;99.90;;;;;;5049288;28;25096;-75
2022/09/03 04:49:08;;;;;;;6.30;2.70;;;16.20;99.90;;;;;;5048929;28;25094;-73
2022/09/03 04:51:36;;;;;;;4.38;1.98;;;16.20;99.90;;;;;;5055041;28;25135;-74
2022/09/03 04:54:02;;;;;;;3.17;2.03;;;16.10;99.90;;;;;;5054461;28;25061;-75
2022/09/03 04:56:31;;;;;;;5.07;2.17;;;16.20;99.90;;;;;;5063308;28;25056;-75
2022/09/03 04:58:59;;;;;;;3.92;1.88;;;16.20;99.90;;;;;;5057969;28;25185;-74
2022/09/03 05:01:27;;;;;;;6.75;2.00;;;16.10;99.90;;;;;;5058872;28;25090;-75
2022/09/03 05:03:55;;;;;;;5.85;1.80;;;16.20;99.90;;;;;;5061692;28;25076;-75
2022/09/03 05:06:20;;;;;;;3.78;1.67;;;16.20;99.90;;;;;;5059223;28;25173;-75
2022/09/03 05:08:51;;;;;;;3.78;1.92;;;16.10;99.90;;;;;;5061913;28;25097;-73
2022/09/03 05:11:17;;;;;;;5.82;2.13;;;16.10;99.90;;;;;;5057054;28;25101;-74
2022/09/03 05:13:46;;;;;;;2.55;1.92;;;16.10;99.90;;;;;;5059155;28;25058;-75
2022/09/03 05:16:12;;;;;;;2.95;1.75;;;16.10;99.90;;;;;;5063536;28;25056;-75
2022/09/03 05:18:38;;;;;;;6.32;1.85;;;16.00;99.90;;;;;;5055962;28;25051;-74
2022/09/03 05:21:12;;;;;;;2.35;1.52;;;16.00;99.90;;;;;;5061848;28;25067;-74
2022/09/03 05:23:41;;;;;;;3.35;2.03;;;16.00;99.90;;;;;;5059688;28;25078;-74
2022/09/03 05:26:12;;;;;;;5.25;1.55;;;16.00;99.90;;;;;;5067656;28;25052;-74
2022/09/03 05:28:39;;;;;;;3.08;1.77;;;16.00;99.90;;;;;;5065094;28;25109;-74
2022/09/03 05:31:11;;;;;;;5.45;2.10;;;16.00;99.90;;;;;;5054396;28;25088;-75
2022/09/03 05:33:41;;;;;;;5.20;2.00;;;16.00;99.90;;;;;;5051513;28;25085;-74
2022/09/03 05:36:10;;;;;;;2.75;1.70;;;16.10;99.90;;;;;;5058465;28;25147;-74
2022/09/03 05:38:36;;;;;;;2.10;1.63;;;16.00;99.90;;;;;;5057603;28;25096;-74
2022/09/03 05:41:04;;;;;;;3.28;1.90;;;16.10;99.90;;;;;;5057263;28;25118;-73
2022/09/03 05:43:31;;;;;;;3.10;1.73;;;16.00;99.90;;;;;;5057841;28;25059;-74
2022/09/03 05:46:17;;;;;;;3.80;1.90;;;16.00;99.90;;;;;;5057878;28;25082;-74
2022/09/03 05:48:43;;;;;;;5.63;2.10;;;16.10;99.90;;;;;;5058157;28;25096;-74
2022/09/03 05:51:16;;;;;;;3.72;1.70;;;16.20;99.90;;;;;;5054701;28;25162;-74
2022/09/03 05:53:44;;;;;;;5.05;1.85;;;16.20;99.90;;;;;;5058486;28;25133;-75
2022/09/03 05:56:12;;;;;;;4.53;1.73;;;16.20;99.90;;;;;;5054835;28;25067;-73
2022/09/03 05:58:43;;;;;;;4.63;2.28;;;16.20;99.90;;;;;;5055633;28;25057;-74
2022/09/03 06:01:21;;;;;;;2.55;1.63;;;16.30;99.90;;;;;;5054220;28;25059;-73
2022/09/03 06:03:52;;;;;;;3.42;1.90;;;16.30;99.90;;;;;;5057425;28;25183;-74
2022/09/03 06:06:24;;;;;;;3.33;1.45;;;16.40;99.90;;;;;;5058917;28;25145;-74
2022/09/03 06:08:53;;;;;;;1.98;1.77;;;16.50;99.90;;;;;;5056348;28;25076;-75
2022/09/03 06:11:26;;;;;;;2.80;2.03;;;16.60;99.90;;;;;;5050791;28;25054;-74
2022/09/03 06:13:53;;;;;;;2.45;1.70;;;16.60;99.90;;;;;;5054157;28;24864;-76
2022/09/03 06:16:20;;;;;;;3.83;2.03;;;16.60;99.90;;;;;;5067223;28;25124;-74
2022/09/03 06:18:46;;;;;;;1.63;1.50;;;16.70;99.90;;;;;;5059574;28;25109;-75
2022/09/03 06:21:11;;;;;;;4.03;1.90;;;16.70;99.90;;;;;;5065317;28;25172;-75
2022/09/03 06:23:37;;;;;;;5.10;1.95;;;16.80;99.90;;;;;;5057450;28;25068;-74
2022/09/03 06:26:02;;;;;;;2.83;1.55;;;16.80;99.90;;;;;;5058294;28;25153;-75
2022/09/03 06:28:29;;;;;;;2.45;1.48;;;16.90;99.90;;;;;;5055235;28;25047;-74
2022/09/03 06:30:57;;;;;;;2.30;1.40;;;16.90;99.90;;;;;;5065654;28;25107;-75
2022/09/03 06:33:23;;;;;;;2.58;1.33;;;16.90;99.90;;;;;;5064599;28;25071;-74
2022/09/03 06:35:56;;;;;;;4.53;1.80;;;17.00;99.90;;;;;;5063400;28;26182;-75
2022/09/03 06:38:22;;;;;;;;;;;17.10;99.90;;;;;;5061134;28;25082;-74
2022/09/03 06:40:52;;;;;;;4.45;1.90;;;17.20;99.90;;;;;;5059471;28;24076;-73
2022/09/03 06:43:18;;;;;;;2.25;1.85;;;17.30;99.90;;;;;;5064205;28;25178;-74
2022/09/03 06:45:56;;;;;;;7.93;1.90;;;17.40;99.90;;;;;;5071691;28;25091;-76
2022/09/03 06:48:22;;;;;;;2.30;1.65;;;17.50;99.90;;;;;;5082299;28;25105;-74
2022/09/03 06:51:02;;;;;;;3.83;1.35;;;17.50;99.90;;;;;;5088821;28;25095;-73
2022/09/03 06:53:30;;;;;;;2.75;1.65;;;17.60;99.90;;;;;;5096071;28;25056;-73
2022/09/03 06:56:00;;;;;;;4.15;2.20;;;17.70;99.90;;;;;;5092003;28;25063;-75
2022/09/03 06:58:37;;;;;;;3.58;1.27;;;17.90;99.90;;;;;;5073186;28;25109;-73
2022/09/03 07:01:05;;;;;;;3.28;1.70;;;17.90;99.90;;;;;;5069287;28;25069;-72
2022/09/03 07:03:31;;;;;;;2.50;1.67;;;17.80;99.90;;;;;;5071644;28;25077;-75
2022/09/03 07:06:01;;;;;;;4.13;1.50;;;17.90;99.90;;;;;;5063843;28;25060;-75
2022/09/03 07:08:28;;;;;;;2.47;1.60;;;18.00;99.90;;;;;;5067448;28;25092;-75
2022/09/03 07:10:54;;;;;;;5.30;2.47;;;18.10;99.90;;;;;;5060441;28;25078;-76
2022/09/03 07:13:19;;;;;;;4.93;1.55;;;18.20;99.90;;;;;;5068610;28;25072;-76
2022/09/03 07:15:45;;;;;;;3.58;1.30;;;18.20;99.90;;;;;;5054023;28;25074;-74
2022/09/03 07:18:11;;;;;;;7.88;2.22;;;18.30;99.90;;;;;;5068882;28;25084;-77
2022/09/03 07:20:36;;;;;;;4.13;1.73;;;18.40;99.90;;;;;;5066607;28;25117;-77
2022/09/03 07:23:02;;;;;;;4.95;1.73;;;18.40;99.90;;;;;;5063679;28;25073;-75
2022/09/03 07:25:29;;;;;;;3.50;1.85;;;18.50;99.90;;;;;;5059734;28;25170;-75
2022/09/03 07:27:55;;;;;;;2.80;1.88;;;18.50;99.90;;;;;;5059121;28;25075;-75
2022/09/03 07:30:21;;;;;;;3.05;1.60;;;18.40;99.90;;;;;;5055479;28;25072;-75
2022/09/03 07:32:50;;;;;;;2.75;1.60;;;18.50;99.90;;;;;;5060198;28;25193;-76
2022/09/03 07:35:17;;;;;;;3.30;1.65;;;18.50;99.90;;;;;;5059931;28;25065;-75
2022/09/03 07:37:42;;;;;;;3.63;1.42;;;18.60;99.90;;;;;;5073430;28;25137;-75
2022/09/03 07:40:09;;;;;;;4.22;1.40;;;18.80;99.90;;;;;;5075295;28;25145;-75
2022/09/03 07:42:38;;;;;;;5.07;1.77;;;18.90;99.90;;;;;;5077757;28;25065;-74
2022/09/03 07:45:08;;;;;;;4.43;2.05;;;18.90;99.90;;;;;;5066162;28;25073;-76
2022/09/03 07:47:34;;;;;;;2.80;1.80;;;18.90;99.90;;;;;;5068023;28;25072;-75
2022/09/03 07:50:00;;;;;;;4.38;1.95;;;18.90;99.90;;;;;;5068246;28;25074;-74
2022/09/03 07:52:26;;;;;;;3.35;1.75;;;18.80;99.90;;;;;;5066641;28;25073;-73
2022/09/03 07:54:52;;;;;;;3.92;1.65;;;18.70;99.90;;;;;;5053012;28;25067;-73
2022/09/03 07:57:17;;;;;;;6.90;1.88;;;18.80;99.90;;;;;;5062832;28;25090;-74
2022/09/03 07:59:43;;;;;;;1.95;1.67;;;19.00;99.90;;;;;;5057718;28;25120;-73
2022/09/03 08:02:08;;;;;;;3.63;2.00;;;19.30;99.90;;;;;;5056683;28;25091;-74
2022/09/03 08:04:35;;;;;;;3.58;2.53;;;19.50;99.90;;;;;;5063884;28;25098;-74
2022/09/03 08:07:00;;;;;;;2.35;1.85;;;19.60;99.90;;;;;;5053199;28;25069;-74
2022/09/03 08:09:26;;;;;;;3.13;1.75;;;19.70;99.20;;;;;;5052253;28;25060;-74
2022/09/03 08:11:51;;;;;;;4.90;1.90;;;20.00;92.00;;;;;;5050185;28;25080;-74
2022/09/03 08:14:17;;;;;;;4.20;1.90;;;20.30;73.90;;;;;;5058499;28;25089;-78
2022/09/03 08:16:48;;;;;;;6.50;1.60;;;20.70;66.40;;;;;;5057143;28;25083;-74
2022/09/03 08:19:14;;;;;;;2.90;1.90;;;21.00;51.20;;;;;;5066685;28;25091;-71
2022/09/03 08:21:40;;;;;;;14.20;1.67;;;21.40;35.20;;;;;;5058901;28;25168;-72
2022/09/03 08:24:06;;;;;;;3.42;1.55;;;21.70;19.00;;;;;;5070751;28;25093;-75
2022/09/03 08:26:35;;;;;;;4.07;2.05;;;21.70;14.60;;;;;;5062597;28;25063;-73
2022/09/03 08:29:02;;;;;;;6.10;2.97;;;21.60;20.10;;;;;;5069421;28;25085;-74
2022/09/03 08:31:29;;;;;;;2.35;2.15;;;21.70;20.60;;;;;;5060447;28;25073;-76
2022/09/03 08:33:57;;;;;;;2.25;1.45;;;21.80;14.00;;;;;;5061183;28;25063;-75
2022/09/03 08:36:34;;;;;;;4.10;1.50;;;21.60;15.40;;;;;;5071398;28;25054;-76
2022/09/03 08:39:08;;;;;;;6.32;2.03;;;21.70;22.10;;;;;;5069209;28;25070;-73
2022/09/03 08:41:58;;;;;;;4.03;2.22;;;21.70;24.30;;;;;;5072640;28;25091;-75
2022/09/03 08:44:46;;;;;;;3.30;2.28;;;21.90;26.70;;;;;;5062730;28;25052;-73
2022/09/03 08:47:33;;;;;;;3.63;2.03;;;21.80;21.00;;;;;;5068495;28;25107;-74
2022/09/03 08:50:25;;;;;;;3.03;2.20;;;22.20;19.90;;;;;;5079267;28;25056;-75
2022/09/03 08:53:19;;;;;;;6.55;2.33;;;22.30;8.80;;;;;;5058032;28;25077;-74
2022/09/03 08:56:16;;;;;;;6.50;2.03;;;22.40;7.00;;;;;;5068754;28;25059;-74
2022/09/03 08:58:43;;;;;;;5.55;2.40;;;22.80;3.50;;;;;;5060623;28;25102;-74
2022/09/03 09:01:10;;;;;;;4.35;2.50;;;23.30;1.00;;;;;;5072215;28;25171;-75
2022/09/03 09:03:47;;;;;;;6.03;1.80;;;23.60;1.00;;;;;;5063402;28;25144;-73
2022/09/03 09:06:34;;;;;;;5.00;2.70;;;23.20;1.00;;;;;;5065843;28;25071;-74
2022/09/03 09:09:29;;;;;;;8.00;2.20;;;23.40;1.00;;;;;;5059663;28;25100;-75
2022/09/03 09:12:20;;;;;;;2.58;1.67;;;23.60;1.00;;;;;;5064161;28;25063;-73
2022/09/03 09:15:06;;;;;;;6.78;2.60;;;23.50;1.00;;;;;;5063738;28;25064;-75
2022/09/03 09:17:40;;;;;;;5.60;2.17;;;24.20;1.00;;;;;;5077708;28;25157;-74
2022/09/03 09:20:09;;;;;;;4.50;2.17;;;24.60;1.00;;;;;;5061502;28;25077;-73
2022/09/03 09:22:40;;;;;;;7.97;2.50;;;24.50;1.00;;;;;;5068131;28;25084;-73
2022/09/03 09:25:13;;;;;;;5.47;2.22;;;24.60;1.00;;;;;;5058210;28;25075;-76
2022/09/03 09:27:50;;;;;;;6.97;2.13;;;24.90;1.00;;;;;;5065569;28;25064;-73
2022/09/03 09:30:18;;;;;;;4.05;2.40;;;24.60;1.00;;;;;;5082869;28;25059;-73
2022/09/03 09:32:45;;;;;;;4.82;1.77;;;24.80;1.00;;;;;;5085047;28;25077;-75
2022/09/03 09:35:11;;;;;;;5.18;1.92;;;24.90;1.00;;;;;;5080347;28;25065;-74
2022/09/03 09:37:53;;;;;;;6.72;2.30;;;24.70;1.00;;;;;;5082374;28;25074;-72
2022/09/03 09:40:41;;;;;;;3.05;1.85;;;24.50;1.00;;;;;;5078735;28;25078;-74
2022/09/03 09:43:20;;;;;;;4.03;1.73;;;24.50;1.00;;;;;;5070566;28;25085;-74
2022/09/03 09:45:48;;;;;;;3.75;1.98;;;24.70;1.00;;;;;;5093418;28;25099;-75
2022/09/03 09:48:33;;;;;;;3.28;2.10;;;24.80;1.00;;;;;;5077526;28;25080;-73
2022/09/03 09:51:08;;;;;;;9.82;2.70;;;24.80;1.00;;;;;;5077299;28;25067;-73
2022/09/03 09:53:34;;;;;;;6.60;2.60;;;24.30;1.00;;;;;;5085710;28;25062;-74
2022/09/03 09:56:01;;;;;;;3.53;2.22;;;24.10;1.00;;;;;;5081893;28;25106;-77
2022/09/03 09:58:32;;;;;;;5.20;2.10;;;24.10;1.00;;;;;;5064681;28;25059;-75
2022/09/03 10:01:13;;;;;;;8.07;2.45;;;24.20;1.00;;;;;;5058492;28;25062;-74
2022/09/03 10:03:53;;;;;;;3.00;1.98;;;23.90;1.00;;;;;;5055033;28;25050;-72
2022/09/03 10:09:16;;;;;;;3.42;2.50;;;23.90;1.00;;;;;;5063277;28;25147;-74
2022/09/03 10:11:50;;;;;;;5.00;2.85;;;23.90;1.00;;;;;;5062522;28;25062;-73
2022/09/03 10:14:25;;;;;;;4.10;2.83;;;24.00;1.00;;;;;;5061656;28;25101;-74
2022/09/03 10:17:02;;;;;;;5.50;2.58;;;24.00;1.00;;;;;;5066287;28;25063;-73
2022/09/03 10:20:26;;;;;;;5.38;2.50;;;23.60;1.00;;;;;;5056498;28;25051;-75
2022/09/03 10:22:45;;;;;;;16.67;2.83;;;23.30;1.00;;;;;;5054404;28;25074;-72
2022/09/03 10:25:14;;;;;;;4.63;2.00;;;23.30;1.00;;;;;;5064619;28;25057;-73
2022/09/03 10:27:40;;;;;;;4.65;1.42;;;23.30;1.00;;;;;;5069357;28;25062;-74
2022/09/03 10:30:07;;;;;;;8.80;2.38;;;23.60;1.00;;;;;;5058068;28;25073;-75
2022/09/03 10:32:44;;;;;;;6.05;1.63;;;23.90;1.00;;;;;;5059645;28;25081;-75
2022/09/03 10:35:12;;;;;;;6.57;2.20;;;24.50;1.00;;;;;;5059980;28;25067;-73
2022/09/03 10:38:10;;;;;;;5.07;2.10;;;24.60;1.00;;;;;;5059627;28;25074;-73
2022/09/03 10:40:41;;;;;;;4.13;2.03;;;24.30;1.00;;;;;;5056703;28;25056;-72
2022/09/03 10:43:15;;;;;;;4.03;2.28;;;24.60;1.00;;;;;;5066260;28;25056;-72
2022/09/03 10:46:06;;;;;;;5.65;2.20;;;24.70;1.00;;;;;;5055726;28;25073;-71
2022/09/03 10:48:49;;;;;;;4.32;2.38;;;24.40;1.00;;;;;;5049105;28;25061;-72
2022/09/03 10:51:54;;;;;;;5.15;2.10;;;24.50;1.00;;;;;;5053862;28;25107;-72
2022/09/03 10:54:36;;;;;;;5.50;2.47;;;24.40;1.00;;;;;;4992405;28;25141;-71
2022/09/03 10:57:07;;;;;;;7.70;2.25;;;24.30;1.00;;;;;;5058231;28;25145;-73
2022/09/03 10:59:50;;;;;;;4.70;1.85;;;24.30;1.00;;;;;;5062951;28;25048;-71
2022/09/03 11:02:52;;;;;;;3.33;2.30;;;24.60;1.00;;;;;;5072286;28;25081;-73
2022/09/03 11:05:35;;;;;;;4.38;2.05;;;24.50;1.00;;;;;;5059703;28;25112;-73
2022/09/03 11:08:22;;;;;;;6.57;2.55;;;24.90;1.00;;;;;;5067460;28;25064;-73
2022/09/03 11:10:54;;;;;;;7.15;2.42;;;25.10;1.00;;;;;;5069385;28;25063;-71
2022/09/03 11:13:23;;;;;;;;;;;25.20;1.00;;;;;;5058548;28;25104;-71
2022/09/03 11:15:59;;;;;;;5.30;2.17;;;25.50;1.00;;;;;;5068808;28;25059;-72
2022/09/03 11:18:43;;;;;;;5.47;1.95;;;26.10;1.00;;;;;;5064563;28;25066;-70
2022/09/03 11:21:12;;;;;;;3.75;1.98;;;26.40;1.00;;;;;;5061953;28;25152;-72
2022/09/03 11:23:47;;;;;;;3.58;1.98;;;26.30;1.00;;;;;;5065901;28;25066;-71
2022/09/03 11:26:17;;;;;;;3.38;2.20;;;26.70;1.00;;;;;;5056611;28;25074;-73
2022/09/03 11:28:56;;;;;;;6.07;2.13;;;26.60;1.00;;;;;;5048139;28;25072;-73
2022/09/03 11:31:32;;;;;;;4.40;2.00;;;27.00;1.00;;;;;;5062892;28;25079;-71
2022/09/03 11:34:05;;;;;;;3.22;1.83;;;27.50;1.00;;;;;;5065486;28;25060;-73
2022/09/03 11:36:34;;;;;;;3.05;1.83;;;27.80;99.90;;;;;;5055498;28;25094;-71
2022/09/03 11:39:11;;;;;;;4.90;2.28;;;28.00;99.90;;;;;;5057822;28;25135;-72
2022/09/03 11:41:37;;;;;;;12.52;2.05;;;28.10;99.90;;;;;;5051106;28;25107;-72
2022/09/03 11:44:18;;;;;;;3.63;2.05;;;27.90;99.90;;;;;;5055186;28;25112;-73
2022/09/03 11:46:58;;;;;;;3.47;1.90;;;28.50;99.90;;;;;;5046662;28;25123;-73
2022/09/03 11:49:29;;;;;;;7.45;3.00;;;29.10;99.90;;;;;;5054203;28;25063;-71
2022/09/03 11:52:02;;;;;;;4.20;1.77;;;29.50;99.90;;;;;;5057766;28;25050;-71
2022/09/03 11:54:31;;;;;;;8.02;2.15;;;28.50;99.90;;;;;;5066171;28;25061;-71
2022/09/03 11:57:13;;;;;;;8.07;2.20;;;28.60;99.90;;;;;;5056639;28;25062;-73
2022/09/03 11:59:41;;;;;;;3.47;2.17;;;28.80;99.90;;;;;;5055906;28;25154;-71
2022/09/03 12:02:29;;;;;;;4.07;2.17;;;28.80;99.90;;;;;;5056642;28;25064;-72
2022/09/03 12:05:07;;;;;;;2.45;2.10;;;28.50;99.90;;;;;;5066045;28;25082;-72
2022/09/03 12:07:39;;;;;;;2.55;2.10;;;29.00;99.90;;;;;;5068815;28;25063;-75
2022/09/03 12:10:04;;;;;;;4.28;1.98;;;29.60;99.90;;;;;;5063803;28;25163;-71
2022/09/03 12:12:56;;;;;;;4.40;1.80;;;29.90;99.90;;;;;;5064363;28;25109;-73
2022/09/03 12:15:49;;;;;;;3.38;1.85;;;30.90;99.90;;;;;;5067357;28;25062;-71
2022/09/03 12:18:22;;;;;;;4.05;1.80;;;31.20;99.90;;;;;;5055552;28;25146;-71
2022/09/03 12:21:04;;;;;;;6.50;1.95;;;30.50;99.90;;;;;;5062665;28;25076;-71
2022/09/03 12:23:32;;;;;;;4.50;2.22;;;29.60;99.90;;;;;;5052506;28;25078;-72
2022/09/03 12:26:03;;;;;;;3.88;2.50;;;29.80;99.90;;;;;;5056660;28;25056;-73
2022/09/03 12:28:32;;;;;;;;;;;29.90;99.90;;;;;;5052660;28;25093;-72
2022/09/03 12:31:19;;;;;;;4.78;2.35;;;29.70;99.90;;;;;;5064788;28;25050;-70
2022/09/03 12:33:47;;;;;;;3.80;2.17;;;28.90;99.90;;;;;;5056629;28;25057;-71
2022/09/03 12:36:13;;;;;;;6.30;2.25;;;29.00;99.90;;;;;;5049205;28;25079;-73
2022/09/03 12:38:38;;;;;;;6.57;1.77;;;29.60;99.90;;;;;;5055509;28;25142;-72
2022/09/03 12:41:04;;;;;;;3.63;2.20;;;30.10;99.90;;;;;;5058479;28;25072;-70
2022/09/03 12:43:29;;;;;;;5.20;2.30;;;30.70;99.90;;;;;;5049431;28;25072;-71
2022/09/03 12:45:56;;;;;;;2.83;1.77;;;30.10;99.90;;;;;;5052451;28;25069;-70
2022/09/03 12:48:21;;;;;;;3.30;1.98;;;30.30;99.90;;;;;;5050784;28;25078;-72
2022/09/03 12:50:59;;;;;;;7.28;3.17;;;30.50;99.90;;;;;;5055177;28;25067;-71
2022/09/03 12:53:27;;;;;;;7.25;2.63;;;30.20;99.90;;;;;;5052402;28;25093;-71
2022/09/03 12:55:58;;;;;;;5.93;2.28;;;30.00;99.90;;;;;;5060163;28;25078;-71
2022/09/03 12:58:32;;;;;;;4.00;2.28;;;29.60;99.90;;;;;;5061958;28;25168;-71
2022/09/03 13:01:04;;;;;;;8.30;2.10;;;29.10;99.90;;;;;;5063107;28;25064;-71
2022/09/03 13:03:32;;;;;;;;;;;29.00;99.90;;;;;;5054413;28;25159;-72
2022/09/03 13:06:07;;;;;;;4.85;2.25;;;29.30;99.90;;;;;;5052591;28;25057;-72
2022/09/03 13:08:43;;;;;;;2.40;2.05;;;29.20;99.90;;;;;;5066946;28;25057;-71
2022/09/03 13:11:09;;;;;;;6.13;2.30;;;29.40;99.90;;;;;;5055540;28;25051;-71
2022/09/03 13:13:39;;;;;;;7.97;2.28;;;29.20;99.90;;;;;;5052810;28;25055;-72
2022/09/03 13:16:08;;;;;;;3.40;2.13;;;29.60;99.90;;;;;;5071234;28;25067;-72
2022/09/03 13:19:04;;;;;;;7.07;1.80;;;29.00;99.90;;;;;;5063871;28;25171;-71
2022/09/03 13:21:49;;;;;;;3.17;1.60;;;28.90;99.90;;;;;;5057954;28;25080;-72
2022/09/03 13:24:34;;;;;;;5.50;1.90;;;28.40;99.90;;;;;;5062285;28;25061;-70